Cottontown, TN (37048)

2:48 PM CDT on August 31, 2015 (GMT -0500)
Cross Plains, TN | | Change Station
CLOSE
Current Station
Personal Weather Station
Location: Cross Plains, TN
Elevation: 797 ft
Nearby Weather Stations

Elev 797 ft 36.54 °N, 86.67 °W | Updated 4 minutes ago

Partly Cloudy
Partly Cloudy
85.1 °F
Feels Like 87 °F
N
1.1
Wind Variable Wind from East

Today
High -- | Low -- °F
--% Chance of Precip.
Yesterday
High -- | Low -- °F
Precip. -- in
6:16 AM 7:16 PM
Waning Gibbous, 94% visible
Pressure 30.11 in
Visibility 10.0 miles
Clouds Scattered Clouds 4200 ft
Scattered Clouds 20000 ft
Heat Index 87 °F
Dew Point 64 °F
Humidity 50%
Rainfall 0.00 in
Snow Depth Not available.
UV 8 out of 12
Pollen 9.50 out of 12
Air Quality Not available.
Flu Activity Not available.
METAR KBNA 311853Z 07004KT 10SM SCT042 SCT200 30/17 A3012 RMK AO2 SLP194 T03000172
Pressure 30.11 in
Visibility 10.0 miles
Clouds Scattered Clouds 4200 ft
Scattered Clouds 20000 ft
Heat Index 87 °F
Dew Point 64 °F
Humidity 50%
Rainfall 0.00 in
Snow Depth Not available.
UV 8 out of 12
Pollen 9.50 out of 12
Air Quality Not available.
Flu Activity Not available.
METAR KBNA 311853Z 07004KT 10SM SCT042 SCT200 30/17 A3012 RMK AO2 SLP194 T03000172

10-Day Weather Forecast

×

Almanac

Astronomy

Aug. 31, 2015 Rise Set
Actual Time
Civil Twilight
Nautical Twilight
Astronomical Twilight
Moon
Length of Visible Light
Length of Day
Tomorrow will be .
, % of the Moon is Illuminated

Today's Extremes

State Highs State Lows

Community

WunderPhotos

Upload Photos

1,851,346 photos uploaded!

WunderBlogs® & News

Nearby

Air Quality

  Air Quality AQ Index Pollutant
Not available.

Snow Depth

Station Depth Elevation

Earthquake Activity

City Distance Mag. Time & Date
Minimum magnitude displayed is 2.5.

Coastal Water Temperatures

Place Temperature

Stations

Nearby Weather Stations

Station Location Temp. Windchill Dew Point Humidity Wind Precip. Elev Updated Type